createdAt,value
2023-05-22T00:00:13.358Z,22.99
2023-05-22T00:02:43.308Z,23.10
2023-05-22T00:05:14.704Z,23.40
2023-05-22T00:07:44.256Z,22.65
2023-05-22T00:10:10.919Z,23.19
2023-05-22T00:12:37.779Z,23.31
2023-05-22T00:15:04.682Z,23.16
2023-05-22T00:17:31.145Z,23.07
2023-05-22T00:20:04.470Z,23.01
2023-05-22T00:22:31.564Z,22.94
2023-05-22T00:24:58.174Z,23.05
2023-05-22T00:27:24.778Z,23.04
2023-05-22T00:29:51.304Z,23.08
2023-05-22T00:32:17.728Z,23.13
2023-05-22T00:34:44.172Z,22.50
2023-05-22T00:37:10.836Z,23.08
2023-05-22T00:39:37.231Z,22.98
2023-05-22T00:42:03.908Z,22.82
2023-05-22T00:44:30.320Z,22.70
2023-05-22T00:46:57.066Z,22.54
2023-05-22T00:49:23.520Z,21.95
2023-05-22T00:51:50.221Z,22.63
2023-05-22T00:54:17.131Z,22.73
2023-05-22T00:56:43.780Z,22.50
2023-05-22T00:59:10.263Z,22.41
2023-05-22T01:01:41.912Z,22.43
2023-05-22T01:04:12.660Z,22.47
2023-05-22T01:06:41.262Z,22.08
2023-05-22T01:09:08.080Z,22.23
2023-05-22T01:12:07.524Z,21.95
2023-05-22T01:14:41.985Z,22.23
2023-05-22T01:17:24.410Z,21.81
2023-05-22T01:19:53.948Z,22.42
2023-05-22T01:22:58.375Z,22.46
2023-05-22T01:26:05.689Z,22.32
2023-05-22T01:28:50.771Z,22.33
2023-05-22T01:31:19.168Z,22.24
2023-05-22T01:33:49.015Z,22.08
2023-05-22T01:36:20.212Z,22.05
2023-05-22T01:38:47.256Z,22.22
2023-05-22T01:41:14.153Z,22.26
2023-05-22T01:43:41.705Z,22.50
2023-05-22T01:46:08.205Z,22.17
2023-05-22T01:48:35.858Z,21.86
2023-05-22T01:51:12.017Z,22.39
2023-05-22T01:53:48.237Z,22.13
2023-05-22T01:56:20.854Z,22.04
2023-05-22T01:59:01.514Z,22.06
2023-05-22T02:01:32.074Z,21.87
2023-05-22T02:03:59.285Z,21.70
2023-05-22T02:06:28.656Z,21.62
2023-05-22T02:08:55.754Z,21.81
2023-05-22T02:11:26.824Z,21.11
2023-05-22T02:13:53.263Z,21.44
2023-05-22T02:16:22.083Z,21.30
2023-05-22T02:18:48.638Z,21.35
2023-05-22T02:21:15.031Z,21.23
2023-05-22T02:23:41.492Z,21.25
2023-05-22T02:26:08.066Z,21.12
2023-05-22T02:28:34.538Z,21.21
2023-05-22T02:31:02.672Z,20.26
2023-05-22T02:33:29.878Z,21.00
2023-05-22T02:35:56.239Z,21.03
2023-05-22T02:38:22.783Z,21.01
2023-05-22T02:40:49.709Z,20.23
2023-05-22T02:43:16.076Z,20.83
2023-05-22T02:45:42.441Z,20.86
2023-05-22T02:48:08.897Z,20.75
2023-05-22T02:50:35.374Z,20.67
2023-05-22T02:53:01.750Z,20.73
2023-05-22T02:55:28.131Z,20.70
2023-05-22T02:57:54.534Z,20.75
2023-05-22T03:00:22.507Z,20.64
2023-05-22T03:02:49.163Z,20.51
2023-05-22T03:05:17.723Z,20.47
2023-05-22T03:07:48.140Z,20.50
2023-05-22T03:10:15.181Z,19.69
2023-05-22T03:12:41.582Z,20.24
2023-05-22T03:15:08.592Z,20.28
2023-05-22T03:17:35.036Z,20.25
2023-05-22T03:20:01.471Z,20.09
2023-05-22T03:22:27.872Z,20.21
2023-05-22T03:24:54.323Z,20.20
2023-05-22T03:27:21.215Z,19.67
2023-05-22T03:29:47.654Z,19.75
2023-05-22T03:32:14.184Z,20.15
2023-05-22T03:34:41.055Z,20.15
2023-05-22T03:37:08.948Z,19.89
2023-05-22T03:39:36.034Z,19.98
2023-05-22T03:42:02.490Z,20.08
2023-05-22T03:44:28.922Z,19.93
2023-05-22T03:46:55.369Z,20.01
2023-05-22T03:49:21.779Z,20.12
2023-05-22T03:51:48.151Z,20.01
2023-05-22T03:54:14.540Z,19.99
2023-05-22T03:56:40.951Z,20.17
2023-05-22T03:59:07.417Z,20.20
2023-05-22T04:01:33.799Z,20.10
2023-05-22T04:04:00.825Z,19.67
2023-05-22T04:06:27.227Z,20.09
2023-05-22T04:08:53.659Z,20.03
2023-05-22T04:11:20.929Z,20.07
2023-05-22T04:13:49.241Z,20.11
2023-05-22T04:16:17.427Z,20.02
2023-05-22T04:18:44.340Z,20.02
2023-05-22T04:21:10.778Z,19.37
2023-05-22T04:23:38.501Z,19.88
2023-05-22T04:26:04.929Z,19.82
2023-05-22T04:28:31.430Z,19.90
2023-05-22T04:30:57.883Z,20.03
2023-05-22T04:33:28.865Z,19.78
2023-05-22T04:35:55.241Z,19.48
2023-05-22T04:38:21.845Z,19.96
2023-05-22T04:40:48.377Z,20.02
2023-05-22T04:43:14.764Z,19.99
2023-05-22T04:45:42.271Z,19.87
2023-05-22T04:48:08.794Z,19.93
2023-05-22T04:50:35.972Z,19.82
2023-05-22T04:53:04.213Z,19.70
2023-05-22T04:55:33.886Z,19.55
2023-05-22T04:58:00.397Z,19.67
2023-05-22T05:00:28.649Z,19.78
2023-05-22T05:02:55.288Z,19.88
2023-05-22T05:05:21.792Z,20.01
2023-05-22T05:07:50.285Z,20.06
2023-05-22T05:10:17.038Z,19.82
2023-05-22T05:12:43.663Z,19.95
2023-05-22T05:15:10.455Z,19.85
2023-05-22T05:17:37.103Z,19.95
2023-05-22T05:20:06.950Z,20.08
2023-05-22T05:22:33.724Z,20.06
2023-05-22T05:25:00.166Z,19.79
2023-05-22T05:27:26.547Z,19.91
2023-05-22T05:29:52.916Z,20.04
2023-05-22T05:32:43.583Z,19.89
2023-05-22T05:35:26.475Z,19.72
2023-05-22T05:37:53.025Z,19.15
2023-05-22T05:40:19.576Z,19.89
2023-05-22T05:42:45.955Z,19.88
2023-05-22T05:45:13.249Z,20.03
2023-05-22T05:47:40.609Z,19.67
2023-05-22T05:50:07.467Z,19.98
2023-05-22T05:52:34.120Z,19.95
2023-05-22T05:55:03.626Z,20.12
2023-05-22T05:57:30.973Z,19.56
2023-05-22T05:59:57.406Z,19.17
2023-05-22T06:02:24.404Z,19.27
2023-05-22T06:04:50.937Z,19.65
2023-05-22T06:07:17.507Z,19.61
2023-05-22T06:09:44.116Z,19.50
2023-05-22T06:12:13.449Z,18.94
2023-05-22T06:14:42.777Z,19.63
2023-05-22T06:17:09.273Z,19.58
2023-05-22T06:19:35.863Z,19.86
2023-05-22T06:22:02.466Z,19.50
2023-05-22T06:24:28.944Z,19.19
2023-05-22T06:26:55.455Z,19.43
2023-05-22T06:29:22.845Z,19.64
2023-05-22T06:31:52.328Z,19.83
2023-05-22T06:34:22.498Z,20.05
2023-05-22T06:36:52.202Z,20.10
2023-05-22T06:39:19.083Z,20.21
2023-05-22T06:41:45.552Z,20.31
2023-05-22T06:44:12.861Z,20.28
2023-05-22T06:46:39.459Z,20.41
2023-05-22T06:49:06.219Z,20.44
2023-05-22T06:51:34.370Z,19.87
2023-05-22T06:54:00.913Z,20.35
2023-05-22T06:56:27.391Z,20.13
2023-05-22T06:58:53.830Z,20.30
2023-05-22T07:01:20.629Z,20.24
2023-05-22T07:03:47.031Z,19.69
2023-05-22T07:06:13.476Z,20.32
2023-05-22T07:08:39.935Z,20.17
2023-05-22T07:11:07.672Z,20.03
2023-05-22T07:13:34.101Z,20.06
2023-05-22T07:16:00.810Z,20.10
2023-05-22T07:18:27.257Z,19.34
2023-05-22T07:20:53.727Z,19.95
2023-05-22T07:23:20.167Z,20.11
2023-05-22T07:25:46.598Z,19.74
2023-05-22T07:28:13.102Z,19.81
2023-05-22T07:30:39.893Z,20.03
2023-05-22T07:33:06.762Z,20.02
2023-05-22T07:35:33.564Z,20.36
2023-05-22T07:38:00.057Z,19.97
2023-05-22T07:40:27.342Z,19.99
2023-05-22T07:42:53.877Z,19.45
2023-05-22T07:45:22.009Z,19.94
2023-05-22T07:47:48.572Z,20.03
2023-05-22T07:50:14.995Z,20.11
2023-05-22T07:52:41.457Z,20.35
2023-05-22T07:55:08.496Z,19.68
2023-05-22T07:57:36.151Z,19.66
2023-05-22T08:00:09.416Z,19.55
2023-05-22T08:02:36.586Z,19.53
2023-05-22T08:05:04.459Z,19.17
2023-05-22T08:07:32.876Z,19.59
2023-05-22T08:10:02.419Z,19.53
2023-05-22T08:12:28.957Z,19.83
2023-05-22T08:14:55.492Z,20.20
2023-05-22T08:17:21.972Z,19.65
2023-05-22T08:19:48.800Z,19.97
2023-05-22T08:22:15.286Z,19.58
2023-05-22T08:24:41.729Z,20.22
2023-05-22T08:27:08.102Z,19.94
2023-05-22T08:29:38.503Z,20.21
2023-05-22T08:32:05.800Z,20.13
2023-05-22T08:34:33.036Z,20.17
2023-05-22T08:36:59.991Z,19.98
2023-05-22T08:39:26.472Z,20.17
2023-05-22T08:41:53.064Z,19.71
2023-05-22T08:44:20.460Z,20.17
2023-05-22T08:47:00.219Z,20.47
2023-05-22T08:49:26.992Z,19.84
2023-05-22T08:51:57.132Z,20.31
2023-05-22T08:54:26.290Z,20.44
2023-05-22T08:56:57.161Z,19.86
2023-05-22T08:59:24.828Z,20.47
2023-05-22T09:01:52.752Z,20.07
2023-05-22T09:04:23.561Z,20.20
2023-05-22T09:06:50.739Z,20.00
2023-05-22T09:09:17.882Z,20.27
2023-05-22T09:11:44.360Z,20.47
2023-05-22T09:14:11.567Z,20.43
2023-05-22T09:16:46.655Z,20.21
2023-05-22T09:19:14.939Z,19.98
2023-05-22T09:21:43.286Z,20.58
2023-05-22T09:24:13.896Z,20.71
2023-05-22T09:26:41.084Z,20.97
2023-05-22T09:29:07.972Z,20.74
2023-05-22T09:31:42.605Z,20.96
2023-05-22T09:34:10.746Z,21.22
2023-05-22T09:36:37.162Z,21.22
2023-05-22T09:39:04.695Z,21.02
2023-05-22T09:41:35.228Z,20.47
2023-05-22T09:44:02.265Z,20.20
2023-05-22T09:46:29.596Z,20.79
2023-05-22T09:48:56.064Z,20.48
2023-05-22T09:51:26.551Z,20.40
2023-05-22T09:54:01.136Z,20.69
2023-05-22T09:56:38.655Z,20.67
2023-05-22T09:59:09.475Z,21.25
2023-05-22T10:01:38.496Z,21.40
2023-05-22T10:04:06.924Z,21.32
2023-05-22T10:06:34.706Z,21.02
2023-05-22T10:09:09.121Z,21.08
2023-05-22T10:11:47.792Z,21.02
2023-05-22T10:14:15.742Z,20.57
2023-05-22T10:16:44.888Z,21.38
2023-05-22T10:19:12.854Z,21.33
2023-05-22T10:21:41.450Z,21.56
2023-05-22T10:24:09.944Z,21.87
2023-05-22T10:26:37.338Z,21.02
2023-05-22T10:29:14.677Z,21.60
2023-05-22T10:31:53.727Z,21.75
2023-05-22T10:35:10.843Z,21.74
2023-05-22T10:37:56.574Z,20.93
2023-05-22T10:40:29.258Z,21.41
2023-05-22T10:43:03.995Z,21.79
2023-05-22T10:45:31.417Z,21.48
2023-05-22T10:48:09.456Z,21.44
2023-05-22T10:50:36.280Z,21.78
2023-05-22T10:53:28.199Z,21.96
2023-05-22T10:55:56.858Z,22.03
2023-05-22T10:58:29.244Z,22.08
2023-05-22T11:01:11.678Z,22.05
2023-05-22T11:04:03.188Z,22.18
2023-05-22T11:06:31.175Z,21.39
2023-05-22T11:08:57.674Z,21.52
2023-05-22T11:11:30.449Z,21.89
2023-05-22T11:14:03.651Z,21.65
2023-05-22T11:16:33.706Z,22.24
2023-05-22T11:19:22.084Z,22.14
2023-05-22T11:21:50.129Z,22.32
2023-05-22T11:24:18.058Z,22.29
2023-05-22T11:26:44.736Z,22.51
2023-05-22T11:29:11.129Z,22.61
2023-05-22T11:31:38.622Z,22.61
2023-05-22T11:34:05.300Z,22.28
2023-05-22T11:36:32.316Z,22.33
2023-05-22T11:39:02.052Z,22.81
2023-05-22T11:41:34.167Z,23.11
2023-05-22T11:44:01.489Z,23.26
2023-05-22T11:46:28.126Z,23.27
2023-05-22T11:48:54.788Z,23.68
2023-05-22T11:51:21.568Z,24.21
2023-05-22T11:53:48.317Z,24.01
2023-05-22T11:56:14.808Z,23.92
2023-05-22T11:58:41.195Z,24.02
2023-05-22T12:01:07.600Z,24.45
2023-05-22T12:03:34.277Z,24.81
2023-05-22T12:06:01.789Z,24.87
2023-05-22T12:08:28.539Z,25.01
2023-05-22T12:10:55.409Z,25.15
2023-05-22T12:13:29.764Z,25.47
2023-05-22T12:16:02.583Z,25.19
2023-05-22T12:18:39.095Z,24.99
2023-05-22T12:21:06.577Z,25.59
2023-05-22T12:23:32.972Z,25.99
2023-05-22T12:26:01.130Z,26.15
2023-05-22T12:28:28.333Z,26.04
2023-05-22T12:30:56.096Z,26.29
2023-05-22T12:33:29.438Z,25.84
2023-05-22T12:35:58.552Z,26.14
2023-05-22T12:38:26.992Z,26.40
2023-05-22T12:40:54.900Z,25.70
2023-05-22T12:43:23.478Z,25.78
2023-05-22T12:45:50.035Z,25.61
2023-05-22T12:48:16.789Z,25.90
2023-05-22T12:50:44.448Z,25.91
2023-05-22T12:53:10.860Z,26.45
2023-05-22T12:55:38.246Z,25.71
2023-05-22T12:58:05.234Z,25.69
2023-05-22T13:00:32.276Z,26.19
2023-05-22T13:03:07.605Z,26.33
2023-05-22T13:05:33.995Z,26.34
2023-05-22T13:08:00.468Z,26.22
2023-05-22T13:10:26.965Z,26.46
2023-05-22T13:12:53.444Z,26.65
2023-05-22T13:15:19.910Z,26.49
2023-05-22T13:17:46.329Z,26.24
2023-05-22T13:20:13.410Z,26.56
2023-05-22T13:22:40.583Z,26.63
2023-05-22T13:25:07.349Z,26.95
2023-05-22T13:27:34.157Z,26.76
2023-05-22T13:30:00.627Z,26.92
2023-05-22T13:32:27.202Z,26.95
2023-05-22T13:34:53.647Z,26.81
2023-05-22T13:37:20.133Z,27.03
2023-05-22T13:39:46.680Z,26.97
2023-05-22T13:42:13.228Z,26.90
2023-05-22T13:44:39.616Z,27.41
2023-05-22T13:47:06.093Z,27.51
2023-05-22T13:49:32.601Z,26.90
2023-05-22T13:51:59.230Z,26.90
2023-05-22T13:54:25.832Z,26.02
2023-05-22T13:56:52.258Z,26.70
2023-05-22T13:59:18.744Z,26.49
2023-05-22T14:01:45.245Z,26.53
2023-05-22T14:04:11.726Z,26.29
2023-05-22T14:06:38.233Z,26.39
2023-05-22T14:09:07.135Z,26.59
2023-05-22T14:11:34.112Z,26.85
2023-05-22T14:14:00.654Z,26.99
2023-05-22T14:16:27.283Z,27.01
2023-05-22T14:18:53.823Z,26.94
2023-05-22T14:21:20.790Z,26.87
2023-05-22T14:23:47.304Z,27.22
2023-05-22T14:26:14.465Z,27.22
2023-05-22T14:28:41.708Z,27.35
2023-05-22T14:31:08.141Z,27.31
2023-05-22T14:33:35.725Z,26.92
2023-05-22T14:36:02.486Z,27.01
2023-05-22T14:38:33.763Z,26.97
2023-05-22T14:41:03.350Z,27.31
2023-05-22T14:43:29.897Z,27.21
2023-05-22T14:45:57.924Z,27.21
2023-05-22T14:48:26.472Z,26.50
2023-05-22T14:50:56.065Z,27.45
2023-05-22T14:53:23.322Z,27.74
2023-05-22T14:55:49.767Z,27.35
2023-05-22T14:58:16.219Z,27.59
2023-05-22T15:00:42.747Z,27.89
2023-05-22T15:03:09.264Z,27.71
2023-05-22T15:05:35.923Z,27.18
2023-05-22T15:08:02.445Z,27.39
2023-05-22T15:10:28.959Z,27.15
2023-05-22T15:12:55.391Z,27.30
2023-05-22T15:15:21.935Z,27.33
2023-05-22T15:17:48.351Z,27.37
2023-05-22T15:20:14.916Z,27.48
2023-05-22T15:22:41.383Z,27.52
2023-05-22T15:25:11.473Z,27.89
2023-05-22T15:27:39.361Z,27.91
2023-05-22T15:30:06.724Z,27.83
2023-05-22T15:32:33.210Z,27.79
2023-05-22T15:34:59.862Z,27.65
2023-05-22T15:37:26.995Z,27.37
2023-05-22T15:39:53.407Z,27.81
2023-05-22T15:42:20.034Z,27.74
2023-05-22T15:44:46.500Z,28.06
2023-05-22T15:47:13.001Z,27.57
2023-05-22T15:49:39.501Z,27.75
2023-05-22T15:52:06.095Z,27.93
2023-05-22T15:54:32.557Z,27.19
2023-05-22T15:56:59.082Z,27.75
2023-05-22T15:59:25.599Z,27.79
2023-05-22T16:01:52.017Z,27.44
2023-05-22T16:04:18.454Z,27.22
2023-05-22T16:06:45.012Z,27.69
2023-05-22T16:09:11.434Z,27.77
2023-05-22T16:11:37.934Z,27.49
2023-05-22T16:14:04.779Z,27.66
2023-05-22T16:16:31.262Z,27.14
2023-05-22T16:18:57.686Z,26.98
2023-05-22T16:21:24.218Z,26.86
2023-05-22T16:23:50.750Z,27.37
2023-05-22T16:26:17.130Z,27.43
2023-05-22T16:28:43.667Z,26.66
2023-05-22T16:31:10.216Z,26.18
2023-05-22T16:33:37.488Z,26.95
2023-05-22T16:36:04.543Z,26.50
2023-05-22T16:38:31.165Z,26.81
2023-05-22T16:40:57.982Z,26.50
2023-05-22T16:43:24.625Z,27.00
2023-05-22T16:45:51.320Z,26.57
2023-05-22T16:48:18.161Z,26.23
2023-05-22T16:50:46.653Z,26.58
2023-05-22T16:53:13.705Z,25.97
2023-05-22T16:55:40.400Z,26.01
2023-05-22T16:58:07.135Z,26.45
2023-05-22T17:00:33.718Z,25.96
2023-05-22T17:03:00.609Z,25.74
2023-05-22T17:05:27.062Z,25.70
2023-05-22T17:07:53.488Z,26.02
2023-05-22T17:10:19.959Z,25.89
2023-05-22T17:12:46.460Z,25.98
2023-05-22T17:15:12.881Z,26.00
2023-05-22T17:17:39.422Z,26.05
2023-05-22T17:20:07.237Z,25.89
2023-05-22T17:22:36.051Z,26.30
2023-05-22T17:25:02.717Z,26.26
2023-05-22T17:27:35.972Z,26.12
2023-05-22T17:30:04.775Z,26.01
2023-05-22T17:32:31.585Z,25.77
2023-05-22T17:34:58.528Z,25.63
2023-05-22T17:37:24.932Z,25.26
2023-05-22T17:39:51.682Z,25.67
2023-05-22T17:42:18.134Z,25.38
2023-05-22T17:44:44.604Z,25.90
2023-05-22T17:47:11.290Z,25.79
2023-05-22T17:49:37.808Z,25.39
2023-05-22T17:52:04.384Z,25.06
2023-05-22T17:54:35.292Z,25.41
2023-05-22T17:57:04.034Z,25.50
2023-05-22T17:59:32.036Z,25.65
2023-05-22T18:01:58.831Z,25.22
2023-05-22T18:04:25.380Z,25.42
2023-05-22T18:06:52.256Z,25.67
2023-05-22T18:09:18.811Z,25.01
2023-05-22T18:11:45.242Z,25.57
2023-05-22T18:14:11.745Z,25.57
2023-05-22T18:16:38.255Z,25.57
2023-05-22T18:19:04.753Z,25.59
2023-05-22T18:21:32.128Z,25.33
2023-05-22T18:23:58.729Z,25.39
2023-05-22T18:26:26.628Z,25.28
2023-05-22T18:28:53.169Z,24.73
2023-05-22T18:31:19.778Z,25.26
2023-05-22T18:33:46.694Z,25.39
2023-05-22T18:36:13.158Z,25.22
2023-05-22T18:38:39.747Z,24.99
2023-05-22T18:41:06.636Z,25.12
2023-05-22T18:43:33.648Z,25.26
2023-05-22T18:46:00.312Z,25.06
2023-05-22T18:48:28.129Z,24.99
2023-05-22T18:50:57.639Z,24.59
2023-05-22T18:53:25.301Z,24.97
2023-05-22T18:55:52.545Z,25.05
2023-05-22T18:58:19.278Z,24.74
2023-05-22T19:00:46.010Z,24.40
2023-05-22T19:03:12.568Z,24.95
2023-05-22T19:05:39.041Z,24.61
2023-05-22T19:08:06.122Z,24.78
2023-05-22T19:10:33.030Z,24.76
2023-05-22T19:12:59.591Z,24.86
2023-05-22T19:15:26.123Z,24.55
2023-05-22T19:17:52.670Z,24.00
2023-05-22T19:20:19.179Z,24.28
2023-05-22T19:22:45.692Z,24.25
2023-05-22T19:25:12.452Z,23.90
2023-05-22T19:27:39.406Z,23.25
2023-05-22T19:30:06.789Z,23.92
2023-05-22T19:32:33.269Z,23.87
2023-05-22T19:34:59.695Z,23.17
2023-05-22T19:37:26.124Z,23.80
2023-05-22T19:39:54.108Z,23.77
2023-05-22T19:42:20.523Z,23.19
2023-05-22T19:44:47.036Z,23.66
2023-05-22T19:47:13.419Z,23.54
2023-05-22T19:49:39.840Z,23.52
2023-05-22T19:52:06.662Z,23.57
2023-05-22T19:54:33.109Z,23.50
2023-05-22T19:56:59.611Z,23.26
2023-05-22T19:59:26.902Z,23.14
2023-05-22T20:01:53.954Z,23.32
2023-05-22T20:04:21.382Z,23.32
2023-05-22T20:06:48.414Z,23.01
2023-05-22T20:09:15.326Z,22.56
2023-05-22T20:11:41.775Z,22.95
2023-05-22T20:14:08.358Z,23.05
2023-05-22T20:16:34.961Z,22.90
2023-05-22T20:19:02.518Z,22.82
2023-05-22T20:21:29.003Z,22.88
2023-05-22T20:23:55.584Z,22.83
2023-05-22T20:26:22.108Z,22.89
2023-05-22T20:28:48.600Z,22.57
2023-05-22T20:31:15.156Z,22.73
2023-05-22T20:33:41.689Z,22.85
2023-05-22T20:36:08.575Z,22.73
2023-05-22T20:38:35.155Z,22.62
2023-05-22T20:41:02.491Z,22.73
2023-05-22T20:43:30.642Z,22.19
2023-05-22T20:45:57.361Z,22.41
2023-05-22T20:48:23.995Z,22.49
2023-05-22T20:50:50.708Z,22.47
2023-05-22T20:53:17.534Z,22.57
2023-05-22T20:55:44.117Z,22.21
2023-05-22T20:58:10.619Z,21.96
2023-05-22T21:00:37.332Z,22.08
2023-05-22T21:03:03.755Z,22.43
2023-05-22T21:05:30.443Z,22.36
2023-05-22T21:07:57.907Z,22.47
2023-05-22T21:10:24.477Z,22.46
2023-05-22T21:12:50.862Z,22.30
2023-05-22T21:15:17.496Z,21.77
2023-05-22T21:17:44.068Z,22.29
2023-05-22T21:20:10.918Z,22.45
2023-05-22T21:22:37.351Z,22.55
2023-05-22T21:25:04.121Z,22.33
2023-05-22T21:27:30.913Z,22.28
2023-05-22T21:30:13.368Z,22.23
2023-05-22T21:32:39.779Z,21.88
2023-05-22T21:35:06.766Z,22.16
2023-05-22T21:37:33.129Z,22.25
2023-05-22T21:39:59.596Z,22.16
2023-05-22T21:42:26.360Z,22.06
2023-05-22T21:44:52.774Z,22.08
2023-05-22T21:47:19.212Z,21.99
2023-05-22T21:49:45.747Z,22.11
2023-05-22T21:52:12.129Z,21.89
2023-05-22T21:54:39.430Z,21.93
2023-05-22T21:57:06.243Z,21.69
2023-05-22T21:59:32.651Z,21.66
2023-05-22T22:01:59.054Z,21.53
2023-05-22T22:04:25.509Z,21.84
2023-05-22T22:06:51.893Z,21.68
2023-05-22T22:09:18.257Z,21.60
2023-05-22T22:11:44.650Z,21.61
2023-05-22T22:14:11.144Z,21.45
2023-05-22T22:16:37.738Z,21.41
2023-05-22T22:19:04.746Z,21.41
2023-05-22T22:21:33.370Z,20.98
2023-05-22T22:23:59.770Z,21.46
2023-05-22T22:26:30.532Z,21.44
2023-05-22T22:28:57.525Z,21.41
2023-05-22T22:31:24.411Z,21.29
2023-05-22T22:33:50.953Z,21.09
2023-05-22T22:36:17.506Z,21.02
2023-05-22T22:38:43.952Z,20.83
2023-05-22T22:41:10.572Z,20.83
2023-05-22T22:43:36.994Z,20.28
2023-05-22T22:46:03.404Z,20.58
2023-05-22T22:48:29.815Z,21.01
2023-05-22T22:50:56.360Z,20.79
2023-05-22T22:53:22.763Z,20.92
2023-05-22T22:55:55.743Z,20.77
2023-05-22T22:58:22.470Z,20.91
2023-05-22T23:00:48.938Z,20.87
2023-05-22T23:03:15.542Z,20.29
2023-05-22T23:05:42.284Z,20.72
2023-05-22T23:08:08.914Z,20.76
2023-05-22T23:10:35.453Z,20.72
2023-05-22T23:13:01.807Z,20.73
2023-05-22T23:15:28.330Z,20.64
2023-05-22T23:17:54.726Z,20.73
2023-05-22T23:20:21.251Z,20.38
2023-05-22T23:22:47.691Z,20.46
2023-05-22T23:25:14.111Z,20.82
2023-05-22T23:27:40.483Z,20.59
2023-05-22T23:30:08.030Z,20.73
2023-05-22T23:32:34.428Z,20.82
2023-05-22T23:35:00.996Z,20.38
2023-05-22T23:37:27.457Z,20.43
2023-05-22T23:39:54.316Z,20.55
2023-05-22T23:42:20.883Z,19.71
2023-05-22T23:44:47.494Z,20.39
2023-05-22T23:47:13.938Z,20.28
2023-05-22T23:49:40.336Z,20.18
2023-05-22T23:52:07.959Z,20.18
2023-05-22T23:54:34.331Z,20.18
2023-05-22T23:57:00.766Z,20.14
2023-05-22T23:59:27.266Z,19.56
